Weather at Niagara Falls Memorial Parking Ramp Heliport

Public forecast

Using degrees Fahrenheit for public forecast. Weather courtesy of forecast.io.

Closest aviation weather report (METAR) to Niagara Falls Memorial Parking Ramp Heliport

Closest report is Niagara Falls International Airport, 4.7 nm (8.7 km) E.

2024/05/29 08:35 (retrieved 22 minutes ago)

KIAG 290835Z AUTO 00000KT 5SM -RA BR SCT026 OVC037 14/12 A2992 RMK AO2 P0021 T01390122

Closest aviation forecast (TAF) to Niagara Falls Memorial Parking Ramp Heliport

Closest forecast is Niagara Falls International Airport, 4.7 nm (8.7 km) E.

2024/05/29 06:42 (retrieved 2 hours ago)

TAF KIAG 290539Z 2906/3006 VRB03KT P6SM BKN035 FM290800 VRB03KT 4SM BR BKN020 FM291300 VRB03KT P6SM BKN035 FM291600 02006KT P6SM BKN040 FM291900 35007KT P6SM SCT050